createdAt,value
2018-09-03T00:01:54.257Z,96119.95
2018-09-03T00:04:24.063Z,96119.10
2018-09-03T00:06:53.887Z,96116.93
2018-09-03T00:09:23.774Z,96115.69
2018-09-03T00:11:53.624Z,96117.73
2018-09-03T00:14:23.451Z,96119.38
2018-09-03T00:16:53.443Z,96108.18
2018-09-03T00:19:24.084Z,96102.93
2018-09-03T00:21:53.945Z,96103.28
2018-09-03T00:24:23.721Z,96101.56
2018-09-03T00:26:53.606Z,96097.71
2018-09-03T00:29:23.812Z,96102.83
2018-09-03T00:31:59.038Z,96095.58
2018-09-03T00:34:34.009Z,96095.52
2018-09-03T00:37:09.031Z,96094.86
2018-09-03T00:39:44.261Z,96095.65
2018-09-03T00:42:19.900Z,96105.87
2018-09-03T00:44:55.428Z,96106.98
2018-09-03T00:47:25.305Z,96110.41
2018-09-03T00:49:55.225Z,96110.95
2018-09-03T00:52:25.421Z,96112.59
2018-09-03T00:54:55.941Z,96116.53
2018-09-03T00:57:25.757Z,96123.30
2018-09-03T00:59:55.605Z,96124.92
2018-09-03T01:02:25.549Z,96126.06
2018-09-03T01:04:55.420Z,96128.77
2018-09-03T01:07:26.117Z,96128.41
2018-09-03T01:09:55.925Z,96132.66
2018-09-03T01:12:25.780Z,96138.17
2018-09-03T01:14:55.631Z,96140.88
2018-09-03T01:17:25.460Z,96151.41
2018-09-03T01:19:55.462Z,96148.55
2018-09-03T01:22:25.342Z,96147.62
2018-09-03T01:24:55.163Z,96149.36
2018-09-03T01:27:25.001Z,96143.00
2018-09-03T01:29:54.819Z,96147.73
2018-09-03T01:32:24.815Z,96145.58
2018-09-03T01:34:54.621Z,96140.78
2018-09-03T01:37:24.477Z,96145.77
2018-09-03T01:39:54.360Z,96143.93
2018-09-03T01:42:24.384Z,96140.77
2018-09-03T01:44:54.388Z,96151.28
2018-09-03T01:47:24.197Z,96143.63
2018-09-03T01:49:54.029Z,96153.38
2018-09-03T01:52:23.853Z,96151.37
2018-09-03T01:54:53.685Z,96150.98
2018-09-03T01:57:23.551Z,96148.71
2018-09-03T01:59:53.373Z,96147.16
2018-09-03T02:02:25.004Z,96150.48
2018-09-03T02:04:54.887Z,96151.26
2018-09-03T02:07:24.799Z,96148.69
2018-09-03T02:09:54.766Z,96153.56
2018-09-03T02:12:25.123Z,96149.94
2018-09-03T02:14:55.015Z,96149.27
2018-09-03T02:17:25.063Z,96138.22
2018-09-03T02:19:54.983Z,96140.38
2018-09-03T02:22:25.443Z,96129.28
2018-09-03T02:24:55.329Z,96131.35
2018-09-03T02:27:25.145Z,96121.32
2018-09-03T02:29:55.163Z,96122.02
2018-09-03T02:32:24.995Z,96115.22
2018-09-03T02:34:54.781Z,96115.16
2018-09-03T02:37:24.700Z,96111.67
2018-09-03T02:39:54.886Z,96112.49
2018-09-03T02:42:25.098Z,96117.26
2018-09-03T02:44:55.049Z,96111.31
2018-09-03T02:47:25.617Z,96106.29
2018-09-03T02:49:55.582Z,96108.41
2018-09-03T02:52:26.210Z,96105.25
2018-09-03T02:54:56.139Z,96098.72
2018-09-03T02:57:26.172Z,96102.31
2018-09-03T02:59:56.722Z,96101.36
2018-09-03T03:02:26.706Z,96096.14
2018-09-03T03:04:56.803Z,96093.41
2018-09-03T03:07:27.397Z,96081.34
2018-09-03T03:09:57.257Z,96076.92
2018-09-03T03:12:27.177Z,96070.89
2018-09-03T03:14:58.012Z,96064.95
2018-09-03T03:17:28.034Z,96062.45
2018-09-03T03:19:57.996Z,96054.65
2018-09-03T03:22:27.921Z,96058.30
2018-09-03T03:24:57.791Z,96061.82
2018-09-03T03:27:27.764Z,96059.55
2018-09-03T03:33:34.004Z,96054.23
2018-09-03T03:36:04.604Z,96048.66
2018-09-03T03:38:34.503Z,96044.83
2018-09-03T03:41:06.183Z,96041.89
2018-09-03T03:43:36.380Z,96040.39
2018-09-03T03:46:06.426Z,96044.52
2018-09-03T03:48:36.455Z,96044.52
2018-09-03T03:51:06.532Z,96044.83
2018-09-03T03:53:36.436Z,96044.36
2018-09-03T03:56:06.407Z,96044.63
2018-09-03T03:58:36.465Z,96043.81
2018-09-03T04:01:06.518Z,96046.51
2018-09-03T04:03:36.418Z,96055.64
2018-09-03T04:06:06.338Z,96058.58
2018-09-03T04:08:36.162Z,96055.77
2018-09-03T04:11:07.050Z,96062.64
2018-09-03T04:13:36.890Z,96064.12
2018-09-03T04:16:07.148Z,96063.62
2018-09-03T04:18:37.445Z,96055.59
2018-09-03T04:21:08.291Z,96067.86
2018-09-03T04:23:38.816Z,96062.27
2018-09-03T04:26:08.739Z,96060.96
2018-09-03T04:28:38.730Z,96060.06
2018-09-03T04:31:08.806Z,96063.14
2018-09-03T04:33:38.799Z,96064.59
2018-09-03T04:36:08.806Z,96069.62
2018-09-03T04:38:38.798Z,96066.09
2018-09-03T04:41:09.687Z,96062.22
2018-09-03T04:43:40.065Z,96068.50
2018-09-03T04:46:10.051Z,96063.89
2018-09-03T04:48:40.291Z,96060.28
2018-09-03T04:51:10.450Z,96055.94
2018-09-03T04:53:40.431Z,96059.03
2018-09-03T04:56:10.383Z,96059.48
2018-09-03T04:58:40.345Z,96062.78
2018-09-03T05:01:10.314Z,96065.94
2018-09-03T05:03:40.517Z,96061.83
2018-09-03T05:06:10.705Z,96069.52
2018-09-03T05:08:41.537Z,96072.84
2018-09-03T05:11:11.505Z,96062.67
2018-09-03T05:13:41.303Z,96058.09
2018-09-03T05:16:11.196Z,96062.45
2018-09-03T05:18:41.075Z,96058.48
2018-09-03T05:21:11.094Z,96066.44
2018-09-03T05:23:41.119Z,96057.05
2018-09-03T05:26:10.987Z,96052.50
2018-09-03T05:28:40.811Z,96051.73
2018-09-03T05:31:10.602Z,96057.06
2018-09-03T05:33:41.357Z,96059.64
2018-09-03T05:36:11.557Z,96060.00
2018-09-03T05:38:41.389Z,96057.33
2018-09-03T05:41:11.147Z,96053.45
2018-09-03T05:43:41.031Z,96058.02
2018-09-03T05:46:11.288Z,96062.19
2018-09-03T05:48:41.134Z,96061.63
2018-09-03T05:51:10.949Z,96062.34
2018-09-03T05:53:40.708Z,96063.19
2018-09-03T05:56:10.900Z,96063.91
2018-09-03T05:58:40.754Z,96060.50
2018-09-03T06:01:11.221Z,96058.19
2018-09-03T06:03:41.031Z,96056.38
2018-09-03T06:06:11.408Z,96055.25
2018-09-03T06:08:41.337Z,96055.25
2018-09-03T06:11:11.555Z,96054.36
2018-09-03T06:13:41.503Z,96060.83
2018-09-03T06:16:11.333Z,96055.91
2018-09-03T06:18:41.196Z,96060.02
2018-09-03T06:21:11.093Z,96063.84
2018-09-03T06:23:40.887Z,96066.77
2018-09-03T06:26:10.739Z,96068.20
2018-09-03T06:28:40.549Z,96072.08
2018-09-03T06:31:11.112Z,96069.03
2018-09-03T06:33:41.003Z,96069.86
2018-09-03T06:36:10.871Z,96073.78
2018-09-03T06:38:40.723Z,96070.91
2018-09-03T06:41:10.635Z,96067.18
2018-09-03T06:43:41.103Z,96069.50
2018-09-03T06:46:10.943Z,96061.37
2018-09-03T06:48:41.503Z,96062.55
2018-09-03T06:51:11.409Z,96064.39
2018-09-03T06:53:41.216Z,96067.03
2018-09-03T06:56:10.995Z,96068.36
2018-09-03T06:58:41.111Z,96073.80
2018-09-03T07:01:11.047Z,96070.09
2018-09-03T07:03:40.844Z,96075.97
2018-09-03T07:06:10.640Z,96072.83
2018-09-03T07:08:41.003Z,96072.56
2018-09-03T07:11:11.790Z,96074.83
2018-09-03T07:13:41.633Z,96069.08
2018-09-03T07:16:11.469Z,96069.98
2018-09-03T07:18:41.447Z,96076.05
2018-09-03T07:21:11.422Z,96073.06
2018-09-03T07:23:41.239Z,96069.16
2018-09-03T07:26:11.049Z,96072.38
2018-09-03T07:28:41.118Z,96074.72
2018-09-03T07:31:11.079Z,96080.43
2018-09-03T07:33:41.580Z,96075.84
2018-09-03T07:36:11.369Z,96085.16
2018-09-03T07:38:41.377Z,96076.16
2018-09-03T07:41:11.534Z,96081.27
2018-09-03T07:43:41.453Z,96078.59
2018-09-03T07:46:11.271Z,96082.36
2018-09-03T07:48:41.087Z,96081.52
2018-09-03T07:51:10.925Z,96080.68
2018-09-03T07:53:40.915Z,96082.36
2018-09-03T07:56:10.709Z,96085.89
2018-09-03T07:58:40.576Z,96088.83
2018-09-03T08:01:10.888Z,96088.69
2018-09-03T08:03:40.833Z,96086.97
2018-09-03T08:06:11.111Z,96092.10
2018-09-03T08:08:40.932Z,96097.84
2018-09-03T08:11:10.824Z,96100.11
2018-09-03T08:13:41.862Z,96103.20
2018-09-03T08:16:12.304Z,96105.08
2018-09-03T08:18:42.452Z,96101.10
2018-09-03T08:21:12.214Z,96103.80
2018-09-03T08:23:42.092Z,96112.70
2018-09-03T08:26:11.838Z,96111.98
2018-09-03T08:28:41.949Z,96110.17
2018-09-03T08:31:11.766Z,96107.33
2018-09-03T08:33:41.534Z,96104.49
2018-09-03T08:36:11.314Z,96108.16
2018-09-03T08:38:41.114Z,96108.88
2018-09-03T08:41:11.034Z,96118.50
2018-09-03T08:43:40.933Z,96114.19
2018-09-03T08:46:10.711Z,96115.91
2018-09-03T08:48:40.538Z,96114.30
2018-09-03T08:51:10.329Z,96114.78
2018-09-03T08:53:40.496Z,96114.12
2018-09-03T08:56:10.367Z,96112.16
2018-09-03T08:58:40.257Z,96116.88
2018-09-03T09:01:10.060Z,96106.50
2018-09-03T09:03:41.591Z,96099.38
2018-09-03T09:06:11.924Z,96099.52
2018-09-03T09:08:41.959Z,96097.34
2018-09-03T09:11:11.849Z,96091.67
2018-09-03T09:13:41.969Z,96089.63
2018-09-03T09:16:11.776Z,96086.62
2018-09-03T09:18:41.604Z,96083.55
2018-09-03T09:21:11.431Z,96086.11
2018-09-03T09:23:41.199Z,96087.78
2018-09-03T09:26:11.011Z,96086.38
2018-09-03T09:28:41.439Z,96083.83
2018-09-03T09:31:11.916Z,96088.98
2018-09-03T09:33:42.737Z,96089.64
2018-09-03T09:36:13.097Z,96091.11
2018-09-03T09:38:43.474Z,96092.77
2018-09-03T09:41:13.828Z,96081.98
2018-09-03T09:43:43.861Z,96085.84
2018-09-03T09:46:13.677Z,96090.94
2018-09-03T09:48:43.736Z,96084.13
2018-09-03T09:51:13.808Z,96080.22
2018-09-03T09:53:43.700Z,96080.26
2018-09-03T09:56:13.584Z,96077.34
2018-09-03T09:58:43.482Z,96078.57
2018-09-03T10:01:18.266Z,96073.48
2018-09-03T10:03:48.160Z,96071.30
2018-09-03T10:06:17.934Z,96077.00
2018-09-03T10:08:47.882Z,96070.20
2018-09-03T10:11:17.668Z,96067.93
2018-09-03T10:13:47.554Z,96065.12
2018-09-03T10:16:18.202Z,96067.28
2018-09-03T10:18:48.065Z,96062.98
2018-09-03T10:21:18.487Z,96061.02
2018-09-03T10:23:48.951Z,96063.74
2018-09-03T10:26:19.390Z,96062.37
2018-09-03T10:28:50.142Z,96058.52
2018-09-03T10:31:20.571Z,96059.90
2018-09-03T10:33:51.135Z,96054.02
2018-09-03T10:36:21.612Z,96053.54
2018-09-03T10:38:51.921Z,96056.33
2018-09-03T10:41:22.353Z,96057.34
2018-09-03T10:43:52.875Z,96049.62
2018-09-03T10:46:23.215Z,96058.17
2018-09-03T10:48:53.529Z,96057.66
2018-09-03T10:51:23.957Z,96053.70
2018-09-03T10:53:54.485Z,96057.27
2018-09-03T10:56:24.877Z,96050.67
2018-09-03T10:58:55.233Z,96044.17
2018-09-03T11:01:26.235Z,96044.84
2018-09-03T11:03:56.543Z,96040.80
2018-09-03T11:06:26.881Z,96039.13
2018-09-03T11:08:57.261Z,96044.52
2018-09-03T11:11:27.629Z,96040.38
2018-09-03T11:13:57.965Z,96028.53
2018-09-03T11:16:28.251Z,96032.48
2018-09-03T11:18:58.551Z,96034.97
2018-09-03T11:21:29.197Z,96036.53
2018-09-03T11:23:59.638Z,96036.83
2018-09-03T11:26:30.139Z,96030.72
2018-09-03T11:29:00.598Z,96023.90
2018-09-03T11:31:30.943Z,96022.28
2018-09-03T11:34:01.263Z,96027.18
2018-09-03T11:36:31.566Z,96025.34
2018-09-03T11:39:02.239Z,96027.97
2018-09-03T11:41:32.573Z,96024.30
2018-09-03T11:44:03.018Z,96026.41
2018-09-03T11:46:33.694Z,96026.80
2018-09-03T11:49:04.147Z,96020.86
2018-09-03T11:51:34.566Z,96026.27
2018-09-03T11:54:05.322Z,96024.34
2018-09-03T11:56:36.069Z,96026.36
2018-09-03T11:59:06.680Z,96034.14
2018-09-03T12:01:37.036Z,96026.87
2018-09-03T12:04:07.738Z,96034.41
2018-09-03T12:06:38.140Z,96028.92
2018-09-03T12:09:10.700Z,96030.16
2018-09-03T12:11:41.306Z,96028.03
2018-09-03T12:14:20.604Z,96029.41
2018-09-03T12:16:51.031Z,96029.89
2018-09-03T12:19:21.405Z,96031.34
2018-09-03T12:21:51.777Z,96036.89
2018-09-03T12:24:22.536Z,96028.90
2018-09-03T12:26:52.922Z,96038.44
2018-09-03T12:29:23.548Z,96028.68
2018-09-03T12:31:53.964Z,96027.73
2018-09-03T12:34:24.348Z,96028.48
2018-09-03T12:36:54.751Z,96031.45
2018-09-03T12:39:25.280Z,96025.05
2018-09-03T12:41:55.684Z,96028.13
2018-09-03T12:44:26.013Z,96020.28
2018-09-03T12:46:56.350Z,96018.56
2018-09-03T12:49:26.704Z,96014.34
2018-09-03T12:51:57.065Z,96018.42
2018-09-03T12:54:27.395Z,96011.34
2018-09-03T12:56:57.954Z,96017.21
2018-09-03T12:59:28.341Z,96012.63
2018-09-03T13:01:58.738Z,96012.92
2018-09-03T13:04:29.169Z,96007.16
2018-09-03T13:06:59.696Z,96014.86
2018-09-03T13:09:30.446Z,96003.88
2018-09-03T13:12:00.912Z,96007.95
2018-09-03T13:14:31.656Z,96008.40
2018-09-03T13:17:02.372Z,96009.12
2018-09-03T13:19:32.722Z,96012.33
2018-09-03T13:22:03.070Z,96015.09
2018-09-03T13:24:33.473Z,96008.36
2018-09-03T13:27:04.004Z,96008.91
2018-09-03T13:29:34.527Z,96016.63
2018-09-03T13:32:04.903Z,96007.95
2018-09-03T13:34:35.524Z,96002.75
2018-09-03T13:37:06.640Z,96007.33
2018-09-03T13:39:36.982Z,95999.19
2018-09-03T13:42:07.813Z,96001.63
2018-09-03T13:44:38.265Z,95994.11
2018-09-03T13:47:08.606Z,95991.44
2018-09-03T13:49:38.939Z,95983.23
2018-09-03T13:52:09.300Z,95981.54
2018-09-03T13:54:39.662Z,95979.48
2018-09-03T13:57:10.186Z,95975.73
2018-09-03T13:59:40.606Z,95988.44
2018-09-03T14:02:11.318Z,95976.83
2018-09-03T14:04:41.638Z,95984.06
2018-09-03T14:07:12.494Z,95980.12
2018-09-03T14:09:43.046Z,95982.53
2018-09-03T14:12:13.667Z,95982.28
2018-09-03T14:14:44.183Z,95981.16
2018-09-03T14:17:14.615Z,95976.92
2018-09-03T14:19:44.960Z,95979.04
2018-09-03T14:22:15.380Z,95978.88
2018-09-03T14:24:45.926Z,95973.44
2018-09-03T14:27:16.276Z,95972.69
2018-09-03T14:29:46.602Z,95978.70
2018-09-03T14:32:16.989Z,95973.44
2018-09-03T14:34:47.314Z,95979.92
2018-09-03T14:37:17.620Z,95974.11
2018-09-03T14:39:47.980Z,95973.32
2018-09-03T14:42:18.314Z,95961.77
2018-09-03T14:44:48.663Z,95967.56
2018-09-03T14:47:19.032Z,95963.78
2018-09-03T14:49:49.454Z,95965.02
2018-09-03T14:52:20.040Z,95958.41
2018-09-03T14:54:50.407Z,95968.88
2018-09-03T14:57:20.765Z,95965.33
2018-09-03T14:59:51.141Z,95964.88
2018-09-03T15:02:21.582Z,95959.00
2018-09-03T15:04:52.484Z,95961.16
2018-09-03T15:07:22.861Z,95965.03
2018-09-03T15:09:53.204Z,95963.95
2018-09-03T15:12:23.569Z,95963.80
2018-09-03T15:14:54.066Z,95959.16
2018-09-03T15:17:24.642Z,95958.09
2018-09-03T15:19:54.952Z,95966.84
2018-09-03T15:22:25.279Z,95964.70
2018-09-03T15:24:55.635Z,95963.95
2018-09-03T15:27:26.041Z,95965.48
2018-09-03T15:29:56.486Z,95965.62
2018-09-03T15:32:27.183Z,95959.33
2018-09-03T15:34:57.545Z,95956.55
2018-09-03T15:37:28.017Z,95960.41
2018-09-03T15:39:58.394Z,95959.17
2018-09-03T15:42:28.793Z,95962.10
2018-09-03T15:44:59.187Z,95960.56
2018-09-03T15:47:29.592Z,95968.11
2018-09-03T15:50:00.115Z,95964.25
2018-09-03T15:52:30.399Z,95972.27
2018-09-03T15:55:00.781Z,95975.05
2018-09-03T15:57:31.149Z,95966.58
2018-09-03T16:00:01.470Z,95967.48
2018-09-03T16:02:31.859Z,95963.34
2018-09-03T16:05:02.155Z,95968.25
2018-09-03T16:07:32.511Z,95970.41
2018-09-03T16:10:02.880Z,95969.50
2018-09-03T16:12:33.513Z,95961.63
2018-09-03T16:15:03.931Z,95964.55
2018-09-03T16:17:34.323Z,95961.16
2018-09-03T16:20:05.289Z,95969.92
2018-09-03T16:22:35.741Z,95963.30
2018-09-03T16:25:06.520Z,95965.80
2018-09-03T16:27:36.914Z,95966.53
2018-09-03T16:30:07.526Z,95965.14
2018-09-03T16:32:38.538Z,95963.64
2018-09-03T16:35:09.120Z,95975.19
2018-09-03T16:37:39.509Z,95971.47
2018-09-03T16:40:10.660Z,95968.70
2018-09-03T16:42:41.182Z,95969.35
2018-09-03T16:45:12.067Z,95974.22
2018-09-03T16:47:42.620Z,95973.45
2018-09-03T16:50:13.215Z,95972.42
2018-09-03T16:52:43.674Z,95969.09
2018-09-03T16:55:14.117Z,95968.80
2018-09-03T16:57:44.529Z,95975.14
2018-09-03T17:00:14.960Z,95976.99
2018-09-03T17:02:45.370Z,95975.92
2018-09-03T17:05:16.053Z,95976.78
2018-09-03T17:07:46.513Z,95970.65
2018-09-03T17:10:17.175Z,95969.69
2018-09-03T17:12:47.621Z,95976.77
2018-09-03T17:15:18.028Z,95983.14
2018-09-03T17:17:48.429Z,95988.35
2018-09-03T17:20:19.005Z,95985.19
2018-09-03T17:22:49.443Z,95984.20
2018-09-03T17:25:19.854Z,95991.37
2018-09-03T17:27:50.237Z,95983.67
2018-09-03T17:30:21.186Z,95981.16
2018-09-03T17:32:51.783Z,95981.05
2018-09-03T17:35:22.491Z,95983.42
2018-09-03T17:37:52.887Z,95985.95
2018-09-03T17:40:23.297Z,95988.88
2018-09-03T17:42:53.767Z,95989.16
2018-09-03T17:45:24.223Z,95986.30
2018-09-03T17:47:54.673Z,95980.38
2018-09-03T17:50:25.088Z,95994.80
2018-09-03T17:52:55.528Z,95997.61
2018-09-03T17:55:26.146Z,95996.62
2018-09-03T17:57:56.600Z,95995.23
2018-09-03T18:00:27.225Z,95999.80
2018-09-03T18:02:57.590Z,95997.25
2018-09-03T18:05:27.940Z,96004.16
2018-09-03T18:07:58.226Z,96002.69
2018-09-03T18:10:28.524Z,95996.44
2018-09-03T18:12:59.407Z,96000.58
2018-09-03T18:15:29.818Z,96006.45
2018-09-03T18:18:00.348Z,95999.80
2018-09-03T18:20:30.764Z,96004.39
2018-09-03T18:23:01.225Z,96000.80
2018-09-03T18:25:31.628Z,96006.04
2018-09-03T18:28:02.236Z,96005.84
2018-09-03T18:30:32.914Z,96007.25
2018-09-03T18:33:03.387Z,96012.11
2018-09-03T18:35:33.240Z,96007.11
2018-09-03T18:38:03.730Z,96010.52
2018-09-03T18:40:34.501Z,96014.29
2018-09-03T18:43:05.830Z,96016.09
2018-09-03T18:45:36.198Z,96021.61
2018-09-03T18:48:06.884Z,96021.48
2018-09-03T18:50:37.610Z,96022.86
2018-09-03T18:53:08.266Z,96021.30
2018-09-03T18:55:38.681Z,96020.31
2018-09-03T18:58:09.134Z,96023.03
2018-09-03T19:00:39.781Z,96024.09
2018-09-03T19:03:10.530Z,96022.41
2018-09-03T19:05:41.398Z,96017.80
2018-09-03T19:08:12.134Z,96030.00
2018-09-03T19:10:42.570Z,96026.50
2018-09-03T19:13:13.304Z,96027.50
2018-09-03T19:15:43.992Z,96023.30
2018-09-03T19:18:14.416Z,96017.84
2018-09-03T19:20:45.692Z,96018.39
2018-09-03T19:23:16.480Z,96019.83
2018-09-03T19:25:47.232Z,96022.08
2018-09-03T19:28:17.920Z,96023.67
2018-09-03T19:30:48.748Z,96025.74
2018-09-03T19:33:19.428Z,96024.30
2018-09-03T19:35:50.524Z,96020.44
2018-09-03T19:38:20.988Z,96017.27
2018-09-03T19:40:51.316Z,96027.98
2018-09-03T19:43:21.642Z,96029.91
2018-09-03T19:45:52.010Z,96032.84
2018-09-03T19:48:23.090Z,96025.59
2018-09-03T19:50:52.928Z,96032.72
2018-09-03T19:53:23.326Z,96030.11
2018-09-03T19:55:54.062Z,96028.70
2018-09-03T19:58:25.011Z,96031.41
2018-09-03T20:00:55.160Z,96031.41
2018-09-03T20:03:25.024Z,96032.99
2018-09-03T20:05:54.908Z,96030.33
2018-09-03T20:08:24.951Z,96024.81
2018-09-03T20:10:55.065Z,96027.76
2018-09-03T20:13:25.332Z,96020.28
2018-09-03T20:15:55.342Z,96020.35
2018-09-03T20:18:25.154Z,96020.35
2018-09-03T20:20:55.306Z,96025.34
2018-09-03T20:23:25.183Z,96020.09
2018-09-03T20:25:55.453Z,96019.42
2018-09-03T20:28:25.459Z,96013.22
2018-09-03T20:30:55.812Z,96011.16
2018-09-03T20:33:25.870Z,96018.38
2018-09-03T20:35:55.734Z,96020.44
2018-09-03T20:38:25.710Z,96016.67
2018-09-03T20:40:55.534Z,96012.09
2018-09-03T20:43:25.411Z,96015.70
2018-09-03T20:45:55.410Z,96020.60
2018-09-03T20:48:25.299Z,96023.28
2018-09-03T20:50:55.114Z,96021.90
2018-09-03T20:53:25.022Z,96022.41
2018-09-03T20:55:54.951Z,96024.73
2018-09-03T20:58:24.846Z,96020.79
2018-09-03T21:00:55.490Z,96019.30
2018-09-03T21:03:25.330Z,96026.45
2018-09-03T21:05:55.210Z,96030.00
2018-09-03T21:08:25.195Z,96028.45
2018-09-03T21:10:55.235Z,96023.36
2018-09-03T21:13:25.056Z,96016.07
2018-09-03T21:15:54.866Z,96025.84
2018-09-03T21:18:24.672Z,96023.78
2018-09-03T21:21:58.470Z,96016.14
2018-09-03T21:24:28.406Z,96025.98
2018-09-03T21:26:58.522Z,96023.42
2018-09-03T21:29:28.290Z,96023.44
2018-09-03T21:31:58.194Z,96020.05
2018-09-03T21:34:28.012Z,96018.88
2018-09-03T21:36:57.813Z,96018.47
2018-09-03T21:39:27.633Z,96022.89
2018-09-03T21:41:57.414Z,96030.85
2018-09-03T21:44:27.407Z,96030.07
2018-09-03T21:46:57.195Z,96029.92
2018-09-03T21:49:27.448Z,96030.46
2018-09-03T21:51:57.343Z,96024.56
2018-09-03T21:54:27.297Z,96023.10
2018-09-03T21:56:57.051Z,96025.56
2018-09-03T21:59:26.843Z,96028.19
2018-09-03T22:01:56.724Z,96036.59
2018-09-03T22:04:26.545Z,96040.06
2018-09-03T22:06:56.341Z,96035.50
2018-09-03T22:09:26.147Z,96032.31
2018-09-03T22:11:55.971Z,96030.16
2018-09-03T22:14:25.895Z,96034.77
2018-09-03T22:16:55.683Z,96035.20
2018-09-03T22:19:25.508Z,96040.42
2018-09-03T22:21:55.427Z,96038.83
2018-09-03T22:24:25.639Z,96032.09
2018-09-03T22:26:56.116Z,96033.06
2018-09-03T22:29:26.042Z,96032.39
2018-09-03T22:31:55.812Z,96022.14
2018-09-03T22:34:25.738Z,96032.36
2018-09-03T22:36:56.233Z,96029.77
2018-09-03T22:39:26.467Z,96025.23
2018-09-03T22:41:56.312Z,96024.88
2018-09-03T22:44:26.129Z,96018.80
2018-09-03T22:46:55.952Z,96022.59
2018-09-03T22:49:25.764Z,96022.98
2018-09-03T22:51:55.632Z,96017.64
2018-09-03T22:54:25.698Z,96017.94
2018-09-03T22:56:55.548Z,96016.09
2018-09-03T22:59:25.483Z,96011.17
2018-09-03T23:01:55.299Z,96008.59
2018-09-03T23:04:25.230Z,96010.10
2018-09-03T23:06:55.030Z,96010.66
2018-09-03T23:09:24.846Z,96013.96
2018-09-03T23:11:55.044Z,96008.52
2018-09-03T23:14:24.842Z,96010.36
2018-09-03T23:16:55.020Z,96004.64
2018-09-03T23:19:24.816Z,96008.91
2018-09-03T23:21:54.908Z,96014.47
2018-09-03T23:24:24.868Z,96015.55
2018-09-03T23:26:54.645Z,96011.70
2018-09-03T23:29:24.512Z,96009.23
2018-09-03T23:31:54.640Z,96012.89
2018-09-03T23:34:24.828Z,96011.65
2018-09-03T23:36:54.712Z,96012.22
2018-09-03T23:39:24.562Z,96011.95
2018-09-03T23:41:54.424Z,96008.44
2018-09-03T23:44:24.552Z,96012.00
2018-09-03T23:46:54.330Z,96014.55
2018-09-03T23:49:24.091Z,96012.43
2018-09-03T23:51:53.906Z,96014.86
2018-09-03T23:54:23.647Z,96014.83
2018-09-03T23:56:53.529Z,96008.98
2018-09-03T23:59:23.375Z,96010.16
